Terminal Aerodrome Forecast
Issued by NWS Wilmington, OH

Home | Current Version | Previous Version | Text Only | Print | Product List | Glossary On
Versions: 1 2 3 4 5 6 7 8 9 10 11 12 13 14 15
992
FTUS41 KILN 242336
TAFDAY
TAF
KDAY 242336Z 2500/2524 03004KT 2SM BR OVC006
     FM250200 33006KT 1SM BR OVC004
     FM251400 34009KT 4SM BR BKN006 OVC010
     FM251600 34010KT P6SM OVC022
     FM251800 34010KT P6SM BKN035=

USA.gov is the U.S. government's official web portal to all federal, state and local government web resources and services.